Strona główna
METAR-TAF:

METAR-TAF

Lotnisko :

Vlissingen, Holandia

Szerokość geograficzna: 51-27N, Długość geograficzna: 3-36E, wysokość: 10 m

Aktualna obserwacja pogody

Raport powstał 24 minut temu, godzina 17:25 UTC
Wiatr 6 kt od zachodnio-południowy zachód
Temperatura 6°C
Wilgotność 100%
Ciśnienie 1011 hPa
Widzialność: 4200 m
zamglenie

METAR: EHFS 271725Z AUTO 25006KT 4200 BR FEW003/// BKN005/// OVC006/// 06/06 Q1011

czas: 18:49 (17:49 UTC)


TAF: brakujący

Obserwacja i prognoza pogody dla ponad 4000 lotnisk (raport METAR i TAF).

Dostępne stacje oznaczono żółtymi i czerwonymi punktami na mapie.

Najedź kursorem aby zobaczyć nazwę stacji.

Kliknij aby zobaczyć obserwacje i prognozy pogody.

Aby zmienić mapę: kliknij na zielony przycisk z czarnym krzyżykiem, aby powiększyć; na zielony przycisk z myślnikiem, aby pomniejszyć; na zielone strzałki, aby przejść do map sąsiednich.


METAR-TAF: